sensor_id;sensor_type;location;lat;lon;timestamp;temperature;humidity
4411;DHT22;2218;51.408;7.208;2024-01-30T00:00:27;18.40;37.30
4411;DHT22;2218;51.408;7.208;2024-01-30T00:02:54;18.40;37.30
4411;DHT22;2218;51.408;7.208;2024-01-30T00:05:22;18.30;37.20
4411;DHT22;2218;51.408;7.208;2024-01-30T00:07:50;18.30;37.20
4411;DHT22;2218;51.408;7.208;2024-01-30T00:10:17;18.30;37.20
4411;DHT22;2218;51.408;7.208;2024-01-30T00:12:44;18.30;37.30
4411;DHT22;2218;51.408;7.208;2024-01-30T00:15:11;18.30;37.30
4411;DHT22;2218;51.408;7.208;2024-01-30T00:17:38;18.30;37.30
4411;DHT22;2218;51.408;7.208;2024-01-30T00:20:06;18.30;37.30
4411;DHT22;2218;51.408;7.208;2024-01-30T00:22:35;18.30;37.30
4411;DHT22;2218;51.408;7.208;2024-01-30T00:25:03;18.30;37.30
4411;DHT22;2218;51.408;7.208;2024-01-30T00:27:30;18.30;37.30
4411;DHT22;2218;51.408;7.208;2024-01-30T00:29:57;18.30;37.30
4411;DHT22;2218;51.408;7.208;2024-01-30T00:32:24;18.30;37.40
4411;DHT22;2218;51.408;7.208;2024-01-30T00:34:51;18.30;37.40
4411;DHT22;2218;51.408;7.208;2024-01-30T00:37:18;18.20;37.40
4411;DHT22;2218;51.408;7.208;2024-01-30T00:39:46;18.20;37.40
4411;DHT22;2218;51.408;7.208;2024-01-30T00:42:13;18.30;37.40
4411;DHT22;2218;51.408;7.208;2024-01-30T00:44:40;18.20;37.40
4411;DHT22;2218;51.408;7.208;2024-01-30T00:47:07;18.30;37.90
4411;DHT22;2218;51.408;7.208;2024-01-30T00:49:34;18.20;37.40
4411;DHT22;2218;51.408;7.208;2024-01-30T00:52:02;18.20;37.40
4411;DHT22;2218;51.408;7.208;2024-01-30T00:54:29;18.20;37.40
4411;DHT22;2218;51.408;7.208;2024-01-30T00:56:58;18.20;37.40
4411;DHT22;2218;51.408;7.208;2024-01-30T00:59:25;18.20;37.50
4411;DHT22;2218;51.408;7.208;2024-01-30T01:01:51;18.20;37.50
4411;DHT22;2218;51.408;7.208;2024-01-30T01:04:19;18.20;37.40
4411;DHT22;2218;51.408;7.208;2024-01-30T01:06:46;18.20;37.50
4411;DHT22;2218;51.408;7.208;2024-01-30T01:09:13;18.20;37.50
4411;DHT22;2218;51.408;7.208;2024-01-30T01:11:40;18.20;37.50
4411;DHT22;2218;51.408;7.208;2024-01-30T01:14:08;18.10;37.40
4411;DHT22;2218;51.408;7.208;2024-01-30T01:16:36;18.10;37.40
4411;DHT22;2218;51.408;7.208;2024-01-30T01:19:03;18.10;37.50
4411;DHT22;2218;51.408;7.208;2024-01-30T01:21:30;18.10;37.50
4411;DHT22;2218;51.408;7.208;2024-01-30T01:23:58;18.10;37.50
4411;DHT22;2218;51.408;7.208;2024-01-30T01:26:25;18.10;37.50
4411;DHT22;2218;51.408;7.208;2024-01-30T01:28:52;18.10;37.50
4411;DHT22;2218;51.408;7.208;2024-01-30T01:31:20;18.10;37.50
4411;DHT22;2218;51.408;7.208;2024-01-30T01:33:50;18.10;37.50
4411;DHT22;2218;51.408;7.208;2024-01-30T01:36:17;18.10;37.50
4411;DHT22;2218;51.408;7.208;2024-01-30T01:38:44;18.10;37.50
4411;DHT22;2218;51.408;7.208;2024-01-30T01:41:11;18.10;37.50
4411;DHT22;2218;51.408;7.208;2024-01-30T01:43:38;18.10;37.50
4411;DHT22;2218;51.408;7.208;2024-01-30T01:46:06;18.10;37.50
4411;DHT22;2218;51.408;7.208;2024-01-30T01:48:34;18.10;37.50
4411;DHT22;2218;51.408;7.208;2024-01-30T01:51:03;18.10;37.50
4411;DHT22;2218;51.408;7.208;2024-01-30T01:53:30;18.10;37.50
4411;DHT22;2218;51.408;7.208;2024-01-30T01:55:58;18.10;37.60
4411;DHT22;2218;51.408;7.208;2024-01-30T01:58:26;18.10;37.60
4411;DHT22;2218;51.408;7.208;2024-01-30T02:00:56;18.10;37.60
4411;DHT22;2218;51.408;7.208;2024-01-30T02:03:24;18.10;37.60
4411;DHT22;2218;51.408;7.208;2024-01-30T02:05:53;18.00;37.60
4411;DHT22;2218;51.408;7.208;2024-01-30T02:08:21;18.10;37.60
4411;DHT22;2218;51.408;7.208;2024-01-30T02:10:49;18.00;37.60
4411;DHT22;2218;51.408;7.208;2024-01-30T02:13:16;18.00;37.60
4411;DHT22;2218;51.408;7.208;2024-01-30T02:15:42;18.00;37.60
4411;DHT22;2218;51.408;7.208;2024-01-30T02:18:09;18.00;37.60
4411;DHT22;2218;51.408;7.208;2024-01-30T02:20:37;18.00;37.60
4411;DHT22;2218;51.408;7.208;2024-01-30T02:23:07;18.00;37.60
4411;DHT22;2218;51.408;7.208;2024-01-30T02:25:38;18.00;37.60
4411;DHT22;2218;51.408;7.208;2024-01-30T02:28:09;18.00;37.70
4411;DHT22;2218;51.408;7.208;2024-01-30T02:30:37;18.00;37.60
4411;DHT22;2218;51.408;7.208;2024-01-30T02:33:04;18.00;37.60
4411;DHT22;2218;51.408;7.208;2024-01-30T02:35:31;18.00;37.70
4411;DHT22;2218;51.408;7.208;2024-01-30T02:37:59;18.00;37.70
4411;DHT22;2218;51.408;7.208;2024-01-30T02:40:28;18.00;37.70
4411;DHT22;2218;51.408;7.208;2024-01-30T02:42:55;18.00;37.70
4411;DHT22;2218;51.408;7.208;2024-01-30T02:45:22;18.00;37.70
4411;DHT22;2218;51.408;7.208;2024-01-30T02:47:49;18.00;37.70
4411;DHT22;2218;51.408;7.208;2024-01-30T02:50:16;18.00;37.70
4411;DHT22;2218;51.408;7.208;2024-01-30T02:52:44;18.00;37.70
4411;DHT22;2218;51.408;7.208;2024-01-30T02:55:11;17.90;37.70
4411;DHT22;2218;51.408;7.208;2024-01-30T02:57:39;17.90;37.70
4411;DHT22;2218;51.408;7.208;2024-01-30T03:00:07;17.90;37.70
4411;DHT22;2218;51.408;7.208;2024-01-30T03:02:36;17.90;37.70
4411;DHT22;2218;51.408;7.208;2024-01-30T03:05:04;17.90;37.70
4411;DHT22;2218;51.408;7.208;2024-01-30T03:07:33;17.90;37.80
4411;DHT22;2218;51.408;7.208;2024-01-30T03:10:00;17.90;37.70
4411;DHT22;2218;51.408;7.208;2024-01-30T03:12:27;17.90;37.70
4411;DHT22;2218;51.408;7.208;2024-01-30T03:14:56;17.90;37.70
4411;DHT22;2218;51.408;7.208;2024-01-30T03:17:23;18.00;37.70
4411;DHT22;2218;51.408;7.208;2024-01-30T03:19:50;18.00;37.60
4411;DHT22;2218;51.408;7.208;2024-01-30T03:22:17;18.00;37.50
4411;DHT22;2218;51.408;7.208;2024-01-30T03:24:44;18.00;37.40
4411;DHT22;2218;51.408;7.208;2024-01-30T03:27:11;18.00;37.30
4411;DHT22;2218;51.408;7.208;2024-01-30T03:29:38;18.10;37.20
4411;DHT22;2218;51.408;7.208;2024-01-30T03:32:07;18.10;37.20
4411;DHT22;2218;51.408;7.208;2024-01-30T03:34:33;18.10;37.10
4411;DHT22;2218;51.408;7.208;2024-01-30T03:37:01;18.10;37.20
4411;DHT22;2218;51.408;7.208;2024-01-30T03:39:28;18.10;37.10
4411;DHT22;2218;51.408;7.208;2024-01-30T03:41:56;18.10;37.10
4411;DHT22;2218;51.408;7.208;2024-01-30T03:44:23;18.20;37.20
4411;DHT22;2218;51.408;7.208;2024-01-30T03:46:50;18.20;37.10
4411;DHT22;2218;51.408;7.208;2024-01-30T03:49:19;18.20;37.10
4411;DHT22;2218;51.408;7.208;2024-01-30T03:51:46;18.20;37.10
4411;DHT22;2218;51.408;7.208;2024-01-30T03:54:14;18.20;37.10
4411;DHT22;2218;51.408;7.208;2024-01-30T03:56:41;18.20;37.10
4411;DHT22;2218;51.408;7.208;2024-01-30T03:59:08;18.20;37.10
4411;DHT22;2218;51.408;7.208;2024-01-30T04:01:35;18.20;37.10
4411;DHT22;2218;51.408;7.208;2024-01-30T04:04:03;18.20;37.00
4411;DHT22;2218;51.408;7.208;2024-01-30T04:06:31;18.20;37.60
4411;DHT22;2218;51.408;7.208;2024-01-30T04:08:58;18.20;37.10
4411;DHT22;2218;51.408;7.208;2024-01-30T04:11:25;18.20;37.10
4411;DHT22;2218;51.408;7.208;2024-01-30T04:13:52;18.30;37.20
4411;DHT22;2218;51.408;7.208;2024-01-30T04:16:19;18.20;37.10
4411;DHT22;2218;51.408;7.208;2024-01-30T04:18:47;18.20;37.00
4411;DHT22;2218;51.408;7.208;2024-01-30T04:21:14;18.30;37.20
4411;DHT22;2218;51.408;7.208;2024-01-30T04:23:43;18.30;37.10
4411;DHT22;2218;51.408;7.208;2024-01-30T04:26:10;18.30;37.10
4411;DHT22;2218;51.408;7.208;2024-01-30T04:28:37;18.30;37.10
4411;DHT22;2218;51.408;7.208;2024-01-30T04:31:04;18.30;37.20
4411;DHT22;2218;51.408;7.208;2024-01-30T04:33:31;18.30;37.10
4411;DHT22;2218;51.408;7.208;2024-01-30T04:35:58;18.30;37.10
4411;DHT22;2218;51.408;7.208;2024-01-30T04:38:25;18.30;37.20
4411;DHT22;2218;51.408;7.208;2024-01-30T04:40:53;18.30;37.10
4411;DHT22;2218;51.408;7.208;2024-01-30T04:43:20;18.30;37.10
4411;DHT22;2218;51.408;7.208;2024-01-30T04:45:47;18.30;37.10
4411;DHT22;2218;51.408;7.208;2024-01-30T04:48:14;18.30;37.10
4411;DHT22;2218;51.408;7.208;2024-01-30T04:50:41;18.30;37.10
4411;DHT22;2218;51.408;7.208;2024-01-30T04:53:08;18.30;37.10
4411;DHT22;2218;51.408;7.208;2024-01-30T04:55:36;18.30;37.10
4411;DHT22;2218;51.408;7.208;2024-01-30T04:58:04;18.30;37.10
4411;DHT22;2218;51.408;7.208;2024-01-30T05:00:31;18.30;37.10
4411;DHT22;2218;51.408;7.208;2024-01-30T05:02:58;18.30;37.10
4411;DHT22;2218;51.408;7.208;2024-01-30T05:05:25;18.30;37.10
4411;DHT22;2218;51.408;7.208;2024-01-30T05:07:52;18.30;37.20
4411;DHT22;2218;51.408;7.208;2024-01-30T05:10:19;18.30;37.20
4411;DHT22;2218;51.408;7.208;2024-01-30T05:12:46;18.30;37.20
4411;DHT22;2218;51.408;7.208;2024-01-30T05:15:15;18.30;37.20
4411;DHT22;2218;51.408;7.208;2024-01-30T05:17:42;18.30;37.20
4411;DHT22;2218;51.408;7.208;2024-01-30T05:20:10;18.30;37.20
4411;DHT22;2218;51.408;7.208;2024-01-30T05:22:38;18.30;37.30
4411;DHT22;2218;51.408;7.208;2024-01-30T05:25:10;18.30;37.20
4411;DHT22;2218;51.408;7.208;2024-01-30T05:27:37;18.40;37.30
4411;DHT22;2218;51.408;7.208;2024-01-30T05:30:06;18.40;37.20
4411;DHT22;2218;51.408;7.208;2024-01-30T05:32:35;18.40;37.20
4411;DHT22;2218;51.408;7.208;2024-01-30T05:35:02;18.40;37.20
4411;DHT22;2218;51.408;7.208;2024-01-30T05:37:29;18.40;37.20
4411;DHT22;2218;51.408;7.208;2024-01-30T05:39:56;18.40;37.10
4411;DHT22;2218;51.408;7.208;2024-01-30T05:42:23;18.40;37.10
4411;DHT22;2218;51.408;7.208;2024-01-30T05:44:51;18.50;37.20
4411;DHT22;2218;51.408;7.208;2024-01-30T05:47:18;18.50;37.10
4411;DHT22;2218;51.408;7.208;2024-01-30T05:49:46;18.50;37.10
4411;DHT22;2218;51.408;7.208;2024-01-30T05:52:13;18.50;37.10
4411;DHT22;2218;51.408;7.208;2024-01-30T05:54:40;18.50;37.10
4411;DHT22;2218;51.408;7.208;2024-01-30T05:57:07;18.50;37.10
4411;DHT22;2218;51.408;7.208;2024-01-30T05:59:34;18.50;37.10
4411;DHT22;2218;51.408;7.208;2024-01-30T06:02:02;18.50;37.10
4411;DHT22;2218;51.408;7.208;2024-01-30T06:04:30;18.50;37.10
4411;DHT22;2218;51.408;7.208;2024-01-30T06:06:58;18.60;37.20
4411;DHT22;2218;51.408;7.208;2024-01-30T06:09:27;18.60;37.20
4411;DHT22;2218;51.408;7.208;2024-01-30T06:11:54;18.60;37.10
4411;DHT22;2218;51.408;7.208;2024-01-30T06:14:21;18.60;37.10
4411;DHT22;2218;51.408;7.208;2024-01-30T06:16:49;18.60;37.10
4411;DHT22;2218;51.408;7.208;2024-01-30T06:19:16;18.60;37.10
4411;DHT22;2218;51.408;7.208;2024-01-30T06:21:43;18.60;37.10
4411;DHT22;2218;51.408;7.208;2024-01-30T06:24:12;18.60;37.10
4411;DHT22;2218;51.408;7.208;2024-01-30T06:26:39;18.60;37.10
4411;DHT22;2218;51.408;7.208;2024-01-30T06:29:06;18.60;37.10
4411;DHT22;2218;51.408;7.208;2024-01-30T06:31:40;18.60;37.10
4411;DHT22;2218;51.408;7.208;2024-01-30T06:34:07;18.60;37.10
4411;DHT22;2218;51.408;7.208;2024-01-30T06:36:34;18.60;37.10
4411;DHT22;2218;51.408;7.208;2024-01-30T06:39:01;18.60;37.10
4411;DHT22;2218;51.408;7.208;2024-01-30T06:41:29;18.70;37.10
4411;DHT22;2218;51.408;7.208;2024-01-30T06:43:56;18.70;37.10
4411;DHT22;2218;51.408;7.208;2024-01-30T06:46:23;18.70;37.10
4411;DHT22;2218;51.408;7.208;2024-01-30T06:48:50;18.70;37.00
4411;DHT22;2218;51.408;7.208;2024-01-30T06:51:17;18.70;37.40
4411;DHT22;2218;51.408;7.208;2024-01-30T06:53:44;18.80;37.40
4411;DHT22;2218;51.408;7.208;2024-01-30T06:56:12;18.80;37.40
4411;DHT22;2218;51.408;7.208;2024-01-30T06:58:40;18.90;37.40
4411;DHT22;2218;51.408;7.208;2024-01-30T07:01:07;18.90;37.40
4411;DHT22;2218;51.408;7.208;2024-01-30T07:03:35;18.90;37.40
4411;DHT22;2218;51.408;7.208;2024-01-30T07:06:03;18.90;37.90
4411;DHT22;2218;51.408;7.208;2024-01-30T07:08:30;18.90;37.40
4411;DHT22;2218;51.408;7.208;2024-01-30T07:10:57;19.00;37.50
4411;DHT22;2218;51.408;7.208;2024-01-30T07:13:24;19.00;37.40
4411;DHT22;2218;51.408;7.208;2024-01-30T07:15:53;19.00;37.40
4411;DHT22;2218;51.408;7.208;2024-01-30T07:18:20;19.00;37.50
4411;DHT22;2218;51.408;7.208;2024-01-30T07:20:47;19.00;37.50
4411;DHT22;2218;51.408;7.208;2024-01-30T07:23:16;19.00;37.50
4411;DHT22;2218;51.408;7.208;2024-01-30T07:25:44;19.10;37.50
4411;DHT22;2218;51.408;7.208;2024-01-30T07:28:12;19.10;37.50
4411;DHT22;2218;51.408;7.208;2024-01-30T07:30:39;19.10;37.70
4411;DHT22;2218;51.408;7.208;2024-01-30T07:33:08;19.10;37.90
4411;DHT22;2218;51.408;7.208;2024-01-30T07:35:41;19.10;37.90
4411;DHT22;2218;51.408;7.208;2024-01-30T07:38:08;19.20;38.20
4411;DHT22;2218;51.408;7.208;2024-01-30T07:40:36;19.10;38.10
4411;DHT22;2218;51.408;7.208;2024-01-30T07:43:03;19.20;38.30
4411;DHT22;2218;51.408;7.208;2024-01-30T07:45:31;19.20;38.40
4411;DHT22;2218;51.408;7.208;2024-01-30T07:47:59;19.20;38.40
4411;DHT22;2218;51.408;7.208;2024-01-30T07:50:28;19.20;38.50
4411;DHT22;2218;51.408;7.208;2024-01-30T07:52:56;19.20;38.60
4411;DHT22;2218;51.408;7.208;2024-01-30T07:55:23;19.30;38.70
4411;DHT22;2218;51.408;7.208;2024-01-30T07:57:55;19.30;38.60
4411;DHT22;2218;51.408;7.208;2024-01-30T08:00:22;19.30;38.70
4411;DHT22;2218;51.408;7.208;2024-01-30T08:02:51;19.30;38.40
4411;DHT22;2218;51.408;7.208;2024-01-30T08:05:20;19.30;38.20
4411;DHT22;2218;51.408;7.208;2024-01-30T08:07:50;19.30;38.10
4411;DHT22;2218;51.408;7.208;2024-01-30T08:10:18;19.30;38.10
4411;DHT22;2218;51.408;7.208;2024-01-30T08:12:45;19.30;38.20
4411;DHT22;2218;51.408;7.208;2024-01-30T08:15:13;19.30;38.20
4411;DHT22;2218;51.408;7.208;2024-01-30T08:17:42;19.30;38.20
4411;DHT22;2218;51.408;7.208;2024-01-30T08:20:11;19.40;38.20
4411;DHT22;2218;51.408;7.208;2024-01-30T08:22:42;19.40;38.20
4411;DHT22;2218;51.408;7.208;2024-01-30T08:25:11;19.40;38.20
4411;DHT22;2218;51.408;7.208;2024-01-30T08:27:38;19.40;38.20
4411;DHT22;2218;51.408;7.208;2024-01-30T08:30:08;19.40;38.10
4411;DHT22;2218;51.408;7.208;2024-01-30T08:32:36;19.40;38.10
4411;DHT22;2218;51.408;7.208;2024-01-30T08:35:04;19.40;38.00
4411;DHT22;2218;51.408;7.208;2024-01-30T08:37:32;19.40;38.00
4411;DHT22;2218;51.408;7.208;2024-01-30T08:40:00;19.40;38.00
4411;DHT22;2218;51.408;7.208;2024-01-30T08:42:31;19.40;38.00
4411;DHT22;2218;51.408;7.208;2024-01-30T08:44:59;19.40;37.90
4411;DHT22;2218;51.408;7.208;2024-01-30T08:47:27;19.50;38.00
4411;DHT22;2218;51.408;7.208;2024-01-30T08:49:54;19.50;38.00
4411;DHT22;2218;51.408;7.208;2024-01-30T08:52:22;19.50;38.00
4411;DHT22;2218;51.408;7.208;2024-01-30T08:54:49;19.50;37.90
4411;DHT22;2218;51.408;7.208;2024-01-30T08:57:16;19.50;37.90
4411;DHT22;2218;51.408;7.208;2024-01-30T08:59:45;19.50;37.90
4411;DHT22;2218;51.408;7.208;2024-01-30T09:02:13;19.50;37.80
4411;DHT22;2218;51.408;7.208;2024-01-30T09:04:44;19.50;38.00
4411;DHT22;2218;51.408;7.208;2024-01-30T09:07:13;19.50;38.00
4411;DHT22;2218;51.408;7.208;2024-01-30T09:09:42;19.50;38.00
4411;DHT22;2218;51.408;7.208;2024-01-30T09:12:09;19.50;38.00
4411;DHT22;2218;51.408;7.208;2024-01-30T09:14:38;19.50;38.00
4411;DHT22;2218;51.408;7.208;2024-01-30T09:17:09;19.60;38.10
4411;DHT22;2218;51.408;7.208;2024-01-30T09:19:37;19.60;38.10
4411;DHT22;2218;51.408;7.208;2024-01-30T09:22:05;19.60;38.10
4411;DHT22;2218;51.408;7.208;2024-01-30T09:24:32;19.60;38.20
4411;DHT22;2218;51.408;7.208;2024-01-30T09:27:00;19.60;38.10
4411;DHT22;2218;51.408;7.208;2024-01-30T09:29:28;19.60;38.10
4411;DHT22;2218;51.408;7.208;2024-01-30T09:31:55;19.60;37.90
4411;DHT22;2218;51.408;7.208;2024-01-30T09:34:24;19.60;38.10
4411;DHT22;2218;51.408;7.208;2024-01-30T09:36:53;19.60;38.10
4411;DHT22;2218;51.408;7.208;2024-01-30T09:39:20;19.60;38.00
4411;DHT22;2218;51.408;7.208;2024-01-30T09:41:49;19.70;38.10
4411;DHT22;2218;51.408;7.208;2024-01-30T09:44:22;19.70;38.20
4411;DHT22;2218;51.408;7.208;2024-01-30T09:46:52;19.70;38.10
4411;DHT22;2218;51.408;7.208;2024-01-30T09:49:20;19.70;38.20
4411;DHT22;2218;51.408;7.208;2024-01-30T09:51:52;19.70;38.20
4411;DHT22;2218;51.408;7.208;2024-01-30T09:54:21;19.80;38.30
4411;DHT22;2218;51.408;7.208;2024-01-30T09:56:49;19.80;38.30
4411;DHT22;2218;51.408;7.208;2024-01-30T09:59:16;19.80;38.40
4411;DHT22;2218;51.408;7.208;2024-01-30T10:01:43;19.80;38.40
4411;DHT22;2218;51.408;7.208;2024-01-30T10:04:10;19.80;38.40
4411;DHT22;2218;51.408;7.208;2024-01-30T10:06:40;19.80;38.50
4411;DHT22;2218;51.408;7.208;2024-01-30T10:09:07;19.80;38.50
4411;DHT22;2218;51.408;7.208;2024-01-30T10:11:36;19.80;38.50
4411;DHT22;2218;51.408;7.208;2024-01-30T10:14:07;19.80;38.60
4411;DHT22;2218;51.408;7.208;2024-01-30T10:16:34;19.90;38.70
4411;DHT22;2218;51.408;7.208;2024-01-30T10:19:02;19.90;38.70
4411;DHT22;2218;51.408;7.208;2024-01-30T10:21:30;19.90;38.70
4411;DHT22;2218;51.408;7.208;2024-01-30T10:23:59;19.90;38.80
4411;DHT22;2218;51.408;7.208;2024-01-30T10:26:27;19.90;38.70
4411;DHT22;2218;51.408;7.208;2024-01-30T10:28:58;19.90;38.70
4411;DHT22;2218;51.408;7.208;2024-01-30T10:31:26;19.90;38.70
4411;DHT22;2218;51.408;7.208;2024-01-30T10:33:53;20.00;38.70
4411;DHT22;2218;51.408;7.208;2024-01-30T10:36:23;20.00;38.90
4411;DHT22;2218;51.408;7.208;2024-01-30T10:39:00;19.90;38.90
4411;DHT22;2218;51.408;7.208;2024-01-30T10:41:31;20.00;39.00
4411;DHT22;2218;51.408;7.208;2024-01-30T10:44:10;19.90;38.90
4411;DHT22;2218;51.408;7.208;2024-01-30T10:46:38;19.90;38.80
4411;DHT22;2218;51.408;7.208;2024-01-30T10:49:07;20.00;38.90
4411;DHT22;2218;51.408;7.208;2024-01-30T10:51:37;20.00;38.90
4411;DHT22;2218;51.408;7.208;2024-01-30T10:54:08;20.00;38.90
4411;DHT22;2218;51.408;7.208;2024-01-30T10:56:38;20.00;38.90
4411;DHT22;2218;51.408;7.208;2024-01-30T10:59:06;20.00;38.90
4411;DHT22;2218;51.408;7.208;2024-01-30T11:01:35;20.00;38.90
4411;DHT22;2218;51.408;7.208;2024-01-30T11:04:03;20.00;38.80
4411;DHT22;2218;51.408;7.208;2024-01-30T11:06:31;20.00;38.80
4411;DHT22;2218;51.408;7.208;2024-01-30T11:09:01;20.00;38.70
4411;DHT22;2218;51.408;7.208;2024-01-30T11:11:49;20.10;38.90
4411;DHT22;2218;51.408;7.208;2024-01-30T11:14:23;20.00;38.70
4411;DHT22;2218;51.408;7.208;2024-01-30T11:16:51;20.00;38.70
4411;DHT22;2218;51.408;7.208;2024-01-30T11:19:22;20.10;38.80
4411;DHT22;2218;51.408;7.208;2024-01-30T11:21:53;20.10;38.70
4411;DHT22;2218;51.408;7.208;2024-01-30T11:24:22;20.10;38.60
4411;DHT22;2218;51.408;7.208;2024-01-30T11:26:55;20.10;38.40
4411;DHT22;2218;51.408;7.208;2024-01-30T11:29:24;20.10;38.30
4411;DHT22;2218;51.408;7.208;2024-01-30T11:31:52;20.10;38.40
4411;DHT22;2218;51.408;7.208;2024-01-30T11:34:20;20.10;38.60
4411;DHT22;2218;51.408;7.208;2024-01-30T11:36:52;20.10;38.70
4411;DHT22;2218;51.408;7.208;2024-01-30T11:39:24;20.10;38.70
4411;DHT22;2218;51.408;7.208;2024-01-30T11:41:54;20.10;38.80
4411;DHT22;2218;51.408;7.208;2024-01-30T11:44:22;20.10;38.60
4411;DHT22;2218;51.408;7.208;2024-01-30T11:46:51;20.10;38.60
4411;DHT22;2218;51.408;7.208;2024-01-30T11:49:19;20.10;38.60
4411;DHT22;2218;51.408;7.208;2024-01-30T11:51:46;20.20;38.60
4411;DHT22;2218;51.408;7.208;2024-01-30T11:54:15;20.20;38.60
4411;DHT22;2218;51.408;7.208;2024-01-30T11:56:42;20.20;38.70
4411;DHT22;2218;51.408;7.208;2024-01-30T11:59:11;20.20;38.70
4411;DHT22;2218;51.408;7.208;2024-01-30T12:01:38;20.20;38.70
4411;DHT22;2218;51.408;7.208;2024-01-30T12:04:08;20.20;38.70
4411;DHT22;2218;51.408;7.208;2024-01-30T12:06:36;20.20;38.70
4411;DHT22;2218;51.408;7.208;2024-01-30T12:09:03;20.20;38.70
4411;DHT22;2218;51.408;7.208;2024-01-30T12:11:30;20.20;38.70
4411;DHT22;2218;51.408;7.208;2024-01-30T12:13:57;20.20;38.70
4411;DHT22;2218;51.408;7.208;2024-01-30T12:16:26;20.20;38.70
4411;DHT22;2218;51.408;7.208;2024-01-30T12:18:59;20.20;38.70
4411;DHT22;2218;51.408;7.208;2024-01-30T12:21:28;20.20;38.70
4411;DHT22;2218;51.408;7.208;2024-01-30T12:23:56;20.20;39.20
4411;DHT22;2218;51.408;7.208;2024-01-30T12:26:23;20.20;38.70
4411;DHT22;2218;51.408;7.208;2024-01-30T12:28:54;20.20;38.80
4411;DHT22;2218;51.408;7.208;2024-01-30T12:31:27;20.30;39.10
4411;DHT22;2218;51.408;7.208;2024-01-30T12:33:55;20.30;39.30
4411;DHT22;2218;51.408;7.208;2024-01-30T12:36:22;20.20;39.10
4411;DHT22;2218;51.408;7.208;2024-01-30T12:38:50;20.30;39.20
4411;DHT22;2218;51.408;7.208;2024-01-30T12:41:17;20.20;39.10
4411;DHT22;2218;51.408;7.208;2024-01-30T12:43:46;20.30;39.30
4411;DHT22;2218;51.408;7.208;2024-01-30T12:46:13;20.20;39.10
4411;DHT22;2218;51.408;7.208;2024-01-30T12:48:41;20.30;39.30
4411;DHT22;2218;51.408;7.208;2024-01-30T12:51:08;20.20;39.80
4411;DHT22;2218;51.408;7.208;2024-01-30T12:53:35;20.30;39.30
4411;DHT22;2218;51.408;7.208;2024-01-30T12:56:02;20.30;39.30
4411;DHT22;2218;51.408;7.208;2024-01-30T12:58:30;20.30;39.30
4411;DHT22;2218;51.408;7.208;2024-01-30T13:00:56;20.30;39.20
4411;DHT22;2218;51.408;7.208;2024-01-30T13:03:24;20.30;39.20
4411;DHT22;2218;51.408;7.208;2024-01-30T13:05:52;20.30;39.20
4411;DHT22;2218;51.408;7.208;2024-01-30T13:08:19;20.30;39.20
4411;DHT22;2218;51.408;7.208;2024-01-30T13:10:46;20.30;39.20
4411;DHT22;2218;51.408;7.208;2024-01-30T13:13:13;20.30;39.20
4411;DHT22;2218;51.408;7.208;2024-01-30T13:15:41;20.30;39.20
4411;DHT22;2218;51.408;7.208;2024-01-30T13:18:08;20.30;39.20
4411;DHT22;2218;51.408;7.208;2024-01-30T13:20:35;20.30;39.20
4411;DHT22;2218;51.408;7.208;2024-01-30T13:23:04;20.30;39.20
4411;DHT22;2218;51.408;7.208;2024-01-30T13:25:31;20.30;39.20
4411;DHT22;2218;51.408;7.208;2024-01-30T13:27:58;20.30;39.30
4411;DHT22;2218;51.408;7.208;2024-01-30T13:30:25;20.30;39.30
4411;DHT22;2218;51.408;7.208;2024-01-30T13:32:52;20.30;39.30
4411;DHT22;2218;51.408;7.208;2024-01-30T13:35:19;20.30;39.40
4411;DHT22;2218;51.408;7.208;2024-01-30T13:37:46;20.40;39.30
4411;DHT22;2218;51.408;7.208;2024-01-30T13:40:15;20.40;39.30
4411;DHT22;2218;51.408;7.208;2024-01-30T13:42:42;20.40;39.30
4411;DHT22;2218;51.408;7.208;2024-01-30T13:45:09;20.40;39.70
4411;DHT22;2218;51.408;7.208;2024-01-30T13:47:37;20.30;39.80
4411;DHT22;2218;51.408;7.208;2024-01-30T13:50:05;20.40;40.00
4411;DHT22;2218;51.408;7.208;2024-01-30T13:52:33;20.40;40.10
4411;DHT22;2218;51.408;7.208;2024-01-30T13:55:00;20.40;40.20
4411;DHT22;2218;51.408;7.208;2024-01-30T13:57:28;20.40;40.20
4411;DHT22;2218;51.408;7.208;2024-01-30T13:59:58;20.40;40.30
4411;DHT22;2218;51.408;7.208;2024-01-30T14:02:25;20.40;40.40
4411;DHT22;2218;51.408;7.208;2024-01-30T14:04:52;20.40;40.40
4411;DHT22;2218;51.408;7.208;2024-01-30T14:07:19;20.40;40.40
4411;DHT22;2218;51.408;7.208;2024-01-30T14:09:47;20.40;40.50
4411;DHT22;2218;51.408;7.208;2024-01-30T14:12:14;20.40;40.60
4411;DHT22;2218;51.408;7.208;2024-01-30T14:14:43;20.40;40.60
4411;DHT22;2218;51.408;7.208;2024-01-30T14:17:10;20.40;40.70
4411;DHT22;2218;51.408;7.208;2024-01-30T14:19:37;20.40;40.70
4411;DHT22;2218;51.408;7.208;2024-01-30T14:22:04;20.40;40.90
4411;DHT22;2218;51.408;7.208;2024-01-30T14:24:31;20.40;40.70
4411;DHT22;2218;51.408;7.208;2024-01-30T14:26:58;20.40;40.60
4411;DHT22;2218;51.408;7.208;2024-01-30T14:29:26;20.50;40.90
4411;DHT22;2218;51.408;7.208;2024-01-30T14:31:54;20.50;40.80
4411;DHT22;2218;51.408;7.208;2024-01-30T14:34:22;20.50;40.80
4411;DHT22;2218;51.408;7.208;2024-01-30T14:36:49;20.50;40.80
4411;DHT22;2218;51.408;7.208;2024-01-30T14:39:16;20.50;40.80
4411;DHT22;2218;51.408;7.208;2024-01-30T14:41:43;20.50;40.80
4411;DHT22;2218;51.408;7.208;2024-01-30T14:44:10;20.50;40.80
4411;DHT22;2218;51.408;7.208;2024-01-30T14:46:37;20.50;40.80
4411;DHT22;2218;51.408;7.208;2024-01-30T14:49:06;20.50;40.80
4411;DHT22;2218;51.408;7.208;2024-01-30T14:51:33;20.50;40.80
4411;DHT22;2218;51.408;7.208;2024-01-30T14:54:01;20.50;40.80
4411;DHT22;2218;51.408;7.208;2024-01-30T14:56:28;20.50;40.80
4411;DHT22;2218;51.408;7.208;2024-01-30T14:58:55;20.50;40.70
4411;DHT22;2218;51.408;7.208;2024-01-30T15:01:22;20.60;40.80
4411;DHT22;2218;51.408;7.208;2024-01-30T15:03:50;20.60;40.80
4411;DHT22;2218;51.408;7.208;2024-01-30T15:06:18;20.50;40.70
4411;DHT22;2218;51.408;7.208;2024-01-30T15:08:48;20.60;40.70
4411;DHT22;2218;51.408;7.208;2024-01-30T15:11:15;20.60;40.70
4411;DHT22;2218;51.408;7.208;2024-01-30T15:13:42;20.50;40.60
4411;DHT22;2218;51.408;7.208;2024-01-30T15:16:09;20.60;40.70
4411;DHT22;2218;51.408;7.208;2024-01-30T15:18:36;20.60;40.60
4411;DHT22;2218;51.408;7.208;2024-01-30T15:21:03;20.60;40.60
4411;DHT22;2218;51.408;7.208;2024-01-30T15:23:32;20.60;40.60
4411;DHT22;2218;51.408;7.208;2024-01-30T15:25:59;20.60;40.60
4411;DHT22;2218;51.408;7.208;2024-01-30T15:28:35;20.60;40.50
4411;DHT22;2218;51.408;7.208;2024-01-30T15:31:03;20.60;40.50
4411;DHT22;2218;51.408;7.208;2024-01-30T15:33:31;20.60;40.50
4411;DHT22;2218;51.408;7.208;2024-01-30T15:35:58;20.60;40.50
4411;DHT22;2218;51.408;7.208;2024-01-30T15:38:26;20.60;40.60
4411;DHT22;2218;51.408;7.208;2024-01-30T15:40:57;20.60;40.50
4411;DHT22;2218;51.408;7.208;2024-01-30T15:43:23;20.60;40.50
4411;DHT22;2218;51.408;7.208;2024-01-30T15:45:50;20.60;40.50
4411;DHT22;2218;51.408;7.208;2024-01-30T15:48:17;20.60;40.50
4411;DHT22;2218;51.408;7.208;2024-01-30T15:50:45;20.60;40.50
4411;DHT22;2218;51.408;7.208;2024-01-30T15:53:12;20.60;40.50
4411;DHT22;2218;51.408;7.208;2024-01-30T15:55:39;20.60;40.50
4411;DHT22;2218;51.408;7.208;2024-01-30T15:58:07;20.60;40.50
4411;DHT22;2218;51.408;7.208;2024-01-30T16:00:34;20.60;40.40
4411;DHT22;2218;51.408;7.208;2024-01-30T16:03:01;20.60;40.40
4411;DHT22;2218;51.408;7.208;2024-01-30T16:05:29;20.60;40.50